createdAt,value
2024-01-26T00:00:57.351Z,81.27
2024-01-26T00:06:01.766Z,81.33
2024-01-26T00:11:04.768Z,81.39
2024-01-26T00:16:08.769Z,81.19
2024-01-26T00:21:11.788Z,81.15
2024-01-26T00:26:15.646Z,81.39
2024-01-26T00:31:19.466Z,81.42
2024-01-26T00:36:22.538Z,81.09
2024-01-26T00:41:25.876Z,81.16
2024-01-26T00:46:28.715Z,81.00
2024-01-26T00:51:31.970Z,81.05
2024-01-26T00:56:35.329Z,81.03
2024-01-26T01:01:38.638Z,81.05
2024-01-26T01:06:41.459Z,81.07
2024-01-26T01:11:44.202Z,81.06
2024-01-26T01:16:47.920Z,81.06
2024-01-26T01:21:51.489Z,81.09
2024-01-26T01:26:54.267Z,80.75
2024-01-26T01:31:57.068Z,80.95
2024-01-26T01:37:00.232Z,81.07
2024-01-26T01:42:02.996Z,80.97
2024-01-26T01:47:06.260Z,80.71
2024-01-26T01:52:10.531Z,81.03
2024-01-26T01:57:14.361Z,80.98
2024-01-26T02:02:17.036Z,80.89
2024-01-26T02:07:19.848Z,80.88
2024-01-26T02:12:22.470Z,80.94
2024-01-26T02:17:32.434Z,80.97
2024-01-26T02:22:35.160Z,80.57
2024-01-26T02:27:38.975Z,80.84
2024-01-26T02:32:42.392Z,80.85
2024-01-26T02:37:45.063Z,80.61
2024-01-26T02:42:47.896Z,80.86
2024-01-26T02:47:50.763Z,80.73
2024-01-26T02:52:53.552Z,80.58
2024-01-26T02:57:58.447Z,80.84
2024-01-26T03:03:01.216Z,80.75
2024-01-26T03:08:04.295Z,80.81
2024-01-26T03:13:06.953Z,80.79
2024-01-26T03:18:09.730Z,80.82
2024-01-26T03:23:12.686Z,80.69
2024-01-26T03:28:15.480Z,80.50
2024-01-26T03:33:19.488Z,80.54
2024-01-26T03:38:22.201Z,80.73
2024-01-26T03:43:24.951Z,80.64
2024-01-26T03:48:27.917Z,80.74
2024-01-26T03:53:30.929Z,80.66
2024-01-26T03:58:33.779Z,80.53
2024-01-26T04:03:36.800Z,80.32
2024-01-26T04:08:39.667Z,80.53
2024-01-26T04:13:42.587Z,80.48
2024-01-26T04:18:45.847Z,80.46
2024-01-26T04:23:48.702Z,80.54
2024-01-26T04:28:51.301Z,80.59
2024-01-26T04:33:54.059Z,80.61
2024-01-26T04:38:56.974Z,80.66
2024-01-26T04:44:02.097Z,80.51
2024-01-26T04:49:05.446Z,80.56
2024-01-26T04:54:08.513Z,80.63
2024-01-26T04:59:11.257Z,80.22
2024-01-26T05:04:14.980Z,80.10
2024-01-26T05:09:20.755Z,80.52
2024-01-26T05:14:23.845Z,80.45
2024-01-26T05:19:26.573Z,80.35
2024-01-26T05:24:29.268Z,80.42
2024-01-26T05:29:32.755Z,80.48
2024-01-26T05:34:35.587Z,80.54
2024-01-26T05:39:38.282Z,80.46
2024-01-26T05:44:41.002Z,80.30
2024-01-26T05:49:45.976Z,80.49
2024-01-26T05:54:48.517Z,80.55
2024-01-26T05:59:51.129Z,80.41
2024-01-26T06:04:54.850Z,80.34
2024-01-26T06:09:57.609Z,80.55
2024-01-26T06:15:00.308Z,80.44
2024-01-26T06:20:05.239Z,80.46
2024-01-26T06:25:08.123Z,80.36
2024-01-26T06:30:11.498Z,80.30
2024-01-26T06:35:14.289Z,80.66
2024-01-26T06:40:18.729Z,80.38
2024-01-26T06:45:21.692Z,80.28
2024-01-26T06:50:24.373Z,80.38
2024-01-26T06:55:27.096Z,80.22
2024-01-26T07:00:31.527Z,80.26
2024-01-26T07:05:36.633Z,80.17
2024-01-26T07:10:39.622Z,80.03
2024-01-26T07:15:45.061Z,80.14
2024-01-26T07:20:47.743Z,80.28
2024-01-26T07:25:50.349Z,80.15
2024-01-26T07:30:53.034Z,80.08
2024-01-26T07:35:55.703Z,80.06
2024-01-26T07:41:00.998Z,80.09
2024-01-26T07:46:04.040Z,80.19
2024-01-26T07:51:06.789Z,79.76
2024-01-26T07:56:10.097Z,79.59
2024-01-26T08:01:15.671Z,79.92
2024-01-26T08:06:19.679Z,79.93
2024-01-26T08:11:22.472Z,79.87
2024-01-26T08:16:25.078Z,80.02
2024-01-26T08:21:27.881Z,80.06
2024-01-26T08:26:32.278Z,79.73
2024-01-26T08:31:36.146Z,79.61
2024-01-26T08:36:39.163Z,79.88
2024-01-26T08:41:47.412Z,80.01
2024-01-26T08:46:52.019Z,79.69
2024-01-26T08:51:59.141Z,79.77
2024-01-26T08:57:02.244Z,79.86
2024-01-26T09:02:04.910Z,79.74
2024-01-26T09:07:10.688Z,79.85
2024-01-26T09:12:14.151Z,79.98
2024-01-26T09:17:19.746Z,79.63
2024-01-26T09:22:23.790Z,80.00
2024-01-26T09:27:28.825Z,79.93
2024-01-26T09:32:32.418Z,79.75
2024-01-26T09:37:35.227Z,79.75
2024-01-26T09:42:37.814Z,79.70
2024-01-26T09:47:41.619Z,79.69
2024-01-26T09:52:44.516Z,79.67
2024-01-26T09:57:49.029Z,79.74
2024-01-26T10:02:54.034Z,79.74
2024-01-26T10:07:56.993Z,79.43
2024-01-26T10:12:59.658Z,79.54
2024-01-26T10:18:02.552Z,79.77
2024-01-26T10:23:06.317Z,79.43
2024-01-26T10:28:10.754Z,79.17
2024-01-26T10:33:14.988Z,79.58
2024-01-26T10:38:19.193Z,79.52
2024-01-26T10:43:22.034Z,79.49
2024-01-26T10:48:25.955Z,79.41
2024-01-26T10:53:29.068Z,79.32
2024-01-26T10:58:31.781Z,79.30
2024-01-26T11:03:34.862Z,79.13
2024-01-26T11:08:37.916Z,78.94
2024-01-26T11:13:40.821Z,78.96
2024-01-26T11:18:43.671Z,79.02
2024-01-26T11:23:47.539Z,79.04
2024-01-26T11:28:50.537Z,78.93
2024-01-26T11:33:54.393Z,78.98
2024-01-26T11:38:58.095Z,78.96
2024-01-26T11:44:02.672Z,79.10
2024-01-26T11:49:06.226Z,79.02
2024-01-26T11:54:09.144Z,79.01
2024-01-26T11:59:12.586Z,78.95
2024-01-26T12:04:15.350Z,78.91
2024-01-26T12:09:31.082Z,78.71
2024-01-26T12:21:17.677Z,78.90
2024-01-26T12:26:20.445Z,78.89
2024-01-26T12:31:23.340Z,78.86
2024-01-26T12:36:35.633Z,78.65
2024-01-26T12:41:55.107Z,78.39
2024-01-26T12:47:06.616Z,78.72
2024-01-26T12:52:09.534Z,78.66
2024-01-26T12:57:12.096Z,78.52
2024-01-26T13:02:31.101Z,78.36
2024-01-26T13:07:48.060Z,78.29
2024-01-26T13:12:50.867Z,78.55
2024-01-26T13:23:45.384Z,78.18
2024-01-26T13:40:36.976Z,77.97
2024-01-26T13:52:09.866Z,77.96
2024-01-26T13:57:27.134Z,78.21
2024-01-26T14:02:57.525Z,77.77
2024-01-26T14:08:25.965Z,77.66
2024-01-26T14:13:38.270Z,77.85
2024-01-26T14:18:47.822Z,77.92
2024-01-26T14:23:56.781Z,78.01
2024-01-26T14:29:13.096Z,77.61
2024-01-26T14:34:34.708Z,77.50
2024-01-26T14:39:53.267Z,77.69
2024-01-26T14:45:05.438Z,77.67
2024-01-26T14:50:12.076Z,77.48
2024-01-26T14:55:23.030Z,77.54
2024-01-26T15:00:31.403Z,77.25
2024-01-26T15:05:39.753Z,77.60
2024-01-26T15:10:47.707Z,77.45
2024-01-26T15:16:04.732Z,77.31
2024-01-26T15:21:49.427Z,77.35
2024-01-26T15:26:53.675Z,77.68
2024-01-26T15:31:58.776Z,77.70
2024-01-26T15:37:01.315Z,77.63
2024-01-26T15:42:06.645Z,77.77
2024-01-26T15:47:09.867Z,77.82
2024-01-26T15:52:12.499Z,77.70
2024-01-26T15:57:15.296Z,77.60
2024-01-26T16:02:17.938Z,77.47
2024-01-26T16:07:20.518Z,77.68
2024-01-26T16:12:23.148Z,78.06
2024-01-26T16:17:25.919Z,77.77
2024-01-26T16:22:28.656Z,77.92
2024-01-26T16:27:33.719Z,77.87
2024-01-26T16:32:36.427Z,78.02
2024-01-26T16:37:41.196Z,77.77
2024-01-26T16:42:44.390Z,77.88
2024-01-26T16:47:47.540Z,77.94
2024-01-26T16:52:50.144Z,77.85
2024-01-26T16:57:54.873Z,77.95
2024-01-26T17:02:59.030Z,77.63
2024-01-26T17:08:04.451Z,77.80
2024-01-26T17:13:07.032Z,77.43
2024-01-26T17:18:09.708Z,77.74
2024-01-26T17:23:15.186Z,77.68
2024-01-26T17:28:18.070Z,77.84
2024-01-26T17:33:20.803Z,77.68
2024-01-26T17:38:27.379Z,77.80
2024-01-26T17:43:30.220Z,77.95
2024-01-26T17:48:48.950Z,77.58
2024-01-26T17:54:10.823Z,77.43
2024-01-26T17:59:30.257Z,77.54
2024-01-26T18:04:35.889Z,77.70
2024-01-26T18:09:44.895Z,77.73
2024-01-26T18:14:53.778Z,77.53
2024-01-26T18:19:56.518Z,77.85
2024-01-26T18:24:59.113Z,77.84
2024-01-26T18:30:01.957Z,78.11
2024-01-26T18:35:07.788Z,77.97
2024-01-26T18:40:12.502Z,78.06
2024-01-26T18:45:15.210Z,78.07
2024-01-26T18:50:25.985Z,77.90
2024-01-26T18:55:28.847Z,78.15
2024-01-26T19:00:33.841Z,78.07
2024-01-26T19:05:36.952Z,78.08
2024-01-26T19:10:43.385Z,78.14
2024-01-26T19:15:47.490Z,78.04
2024-01-26T19:20:50.840Z,78.08
2024-01-26T19:25:53.594Z,78.27
2024-01-26T19:30:56.204Z,78.37
2024-01-26T19:35:58.896Z,78.14
2024-01-26T19:41:02.581Z,78.33
2024-01-26T19:46:05.444Z,78.28
2024-01-26T19:51:09.329Z,78.26
2024-01-26T19:56:14.196Z,78.29
2024-01-26T20:01:18.280Z,78.14
2024-01-26T20:06:21.042Z,78.14
2024-01-26T20:11:26.165Z,78.36
2024-01-26T20:16:28.963Z,78.50
2024-01-26T20:21:31.588Z,78.22
2024-01-26T20:26:34.414Z,78.25
2024-01-26T20:31:39.638Z,78.46
2024-01-26T20:36:43.067Z,78.59
2024-01-26T20:41:47.852Z,78.52
2024-01-26T20:46:50.601Z,78.58
2024-01-26T20:51:53.244Z,78.52
2024-01-26T20:56:55.977Z,78.56
2024-01-26T21:01:59.372Z,78.74
2024-01-26T21:07:01.993Z,78.77
2024-01-26T21:12:06.636Z,78.43
2024-01-26T21:17:10.304Z,78.69
2024-01-26T21:22:16.232Z,78.64
2024-01-26T21:27:21.823Z,78.51
2024-01-26T21:32:24.419Z,78.45
2024-01-26T21:37:27.074Z,78.53
2024-01-26T21:42:30.235Z,78.82
2024-01-26T21:47:33.377Z,78.82
2024-01-26T21:52:37.421Z,78.78
2024-01-26T21:57:40.619Z,78.68
2024-01-26T22:02:43.478Z,78.58
2024-01-26T22:07:48.335Z,78.54
2024-01-26T22:12:50.976Z,78.62
2024-01-26T22:17:53.742Z,78.57
2024-01-26T22:22:56.346Z,78.49
2024-01-26T22:27:59.386Z,78.50
2024-01-26T22:33:01.987Z,78.60
2024-01-26T22:38:04.810Z,78.47
2024-01-26T22:43:07.288Z,78.77
2024-01-26T22:48:10.035Z,78.38
2024-01-26T22:53:12.665Z,78.44
2024-01-26T22:58:15.433Z,78.39
2024-01-26T23:03:18.116Z,78.31
2024-01-26T23:08:20.769Z,78.79
2024-01-26T23:13:23.314Z,78.48
2024-01-26T23:18:26.327Z,78.58
2024-01-26T23:23:29.244Z,78.25
2024-01-26T23:28:31.808Z,78.37
2024-01-26T23:33:34.725Z,78.47
2024-01-26T23:38:37.595Z,78.29
2024-01-26T23:43:40.882Z,78.49
2024-01-26T23:48:44.735Z,78.38
2024-01-26T23:53:49.577Z,78.41
2024-01-26T23:58:52.160Z,78.35
